Raymondville, TX (78580)

4:35 PM CDT on September 02, 2014 (GMT -0500)
Brownstone | Change Station
CLOSE
Current Station
Personal Weather Station
Location: Harlingen, TX
Elevation: 59 ft
Nearby Weather Stations

Elev 59 ft 26.21 °N, 97.79 °W | Updated 38 seconds ago

Mostly Cloudy
Mostly Cloudy
89.6 °F
Feels Like 100 °F
N
10.4
Wind Variable Wind from SSE

Today
High -- | Low -- °F
--% Chance of Precip.
Yesterday
High -- | Low -- °F
Precip. -- in
7:11 AM 7:49 PM
First Quarter, 55% visible
Pressure 29.83 in
Visibility 10.0 miles
Clouds Few 3500 ft
Mostly Cloudy 7000 ft
Mostly Cloudy 9000 ft
Heat Index 100 °F
Dew Point 75 °F
Humidity 63%
Rainfall 0.00 in
Snow Depth Not available.
UV 4 out of 12
Pollen 8.80 out of 12
Ozone Good
PM2.5 Good
Flu Activity Not available.
METAR KHRL 022052Z 12020G29KT 10SM FEW035 BKN070 BKN090 33/23 A2983 RMK AO2 PK WND 12030/2040 SLP101 T03280228 56013

More Conditions Fewer Conditions

Pressure 29.83 in
Visibility 10.0 miles
Clouds Few 3500 ft
Mostly Cloudy 7000 ft
Mostly Cloudy 9000 ft
Heat Index 100 °F
Dew Point 75 °F
Humidity 63%
Rainfall 0.00 in
Snow Depth Not available.
UV 4 out of 12
Pollen 8.80 out of 12
Ozone Good
PM2.5 Good
Flu Activity Not available.
METAR KHRL 022052Z 12020G29KT 10SM FEW035 BKN070 BKN090 33/23 A2983 RMK AO2 PK WND 12030/2040 SLP101 T03280228 56013

More Conditions Fewer Conditions

Nowcast | as of 3:03 PM CDT on September 2, 2014

Through 5 PM...isolated showers...associated with Tropical Storm Dolly will continue to develop and move inland across sections of the mid and upper sections of deep south Texas. Brief light to moderate rain can be expected with amounts generally a tenth of an inch or less.

×

10-Day Weather Forecast

Almanac

Astronomy

Sep. 02, 2014 Rise Set
Actual Time 7:11 AM CDT 7:49 PM CDT
Civil Twilight 6:47 AM CDT 8:13 PM CDT
Nautical Twilight 6:20 AM CDT 8:40 PM CDT
Astronomical Twilight 5:52 AM CDT 9:08 PM CDT
Moon 2:17 PM CDT 12:31 AM CDT
Length of Visible Light 13h 25m
Length of Day
12h 38m
Tomorrow will be 1m 30s shorter.
First Quarter, 55% of the Moon is Illuminated
Today
First Quarter
Sep 8
Full
Sep 15
Last Quarter
Sep 24
New
Oct 1
First Quarter

Today's Extremes

State Highs State Lows

Community

WunderPhotos

Upload Photos

1,749,776 photos uploaded!

Nearby

Air Quality

  Air Quality AQ Index Pollutant
Yesterday Good
PM2.5
Yesterday Good
OZONE
Current Good
PM2.5
Current Good
OZONE
Tuesday Good
PM10
Tuesday Good
OZONE
Wednesday Good
PM10
Wednesday Good
OZONE
Thursday Good
PM10
Thursday Good
OZONE

Snow Depth

Station Depth Elevation
No new snow has been reported.

Earthquake Activity

City Distance Mag. Time & Date
No recent earthquake activity has been reported nearby.
Minimum magnitude displayed is 2.5.

Coastal Water Temperatures

Place Temperature
Port Isabel, TX 84.9 °F
Baffin Bay Point of Rocks, TX 87.1 °F
South Bird Island, TX 89.1 °F
Malaquite Beach (Corpus Christi), TX 86.0 °F
Packery Channel, TX 86.0 °F

Nearby Weather Stations